createdAt,value
2022-11-30T00:01:31.014Z,32.17
2022-11-30T00:03:58.525Z,32.37
2022-11-30T00:06:26.523Z,32.10
2022-11-30T00:08:55.577Z,31.97
2022-11-30T00:11:25.831Z,31.83
2022-11-30T00:13:53.683Z,32.40
2022-11-30T00:16:22.102Z,32.90
2022-11-30T00:18:49.780Z,33.60
2022-11-30T00:21:17.500Z,31.57
2022-11-30T00:23:47.275Z,32.97
2022-11-30T00:26:18.249Z,32.57
2022-11-30T00:28:46.917Z,32.80
2022-11-30T00:31:18.457Z,32.33
2022-11-30T00:33:46.450Z,32.27
2022-11-30T00:36:18.527Z,32.40
2022-11-30T00:38:46.630Z,32.43
2022-11-30T00:41:14.878Z,33.00
2022-11-30T00:43:42.769Z,31.73
2022-11-30T00:46:11.577Z,33.37
2022-11-30T00:48:40.647Z,32.00
2022-11-30T00:51:10.679Z,33.30
2022-11-30T00:53:39.151Z,30.70
2022-11-30T00:56:07.607Z,31.27
2022-11-30T00:58:35.251Z,32.97
2022-11-30T01:01:03.022Z,32.97
2022-11-30T01:03:30.586Z,32.40
2022-11-30T01:06:09.918Z,30.63
2022-11-30T01:08:37.616Z,30.53
2022-11-30T01:11:16.121Z,33.17
2022-11-30T01:13:43.745Z,30.47
2022-11-30T01:16:16.492Z,31.33
2022-11-30T01:18:44.765Z,31.37
2022-11-30T01:21:19.033Z,30.47
2022-11-30T01:23:47.291Z,31.43
2022-11-30T01:26:15.621Z,33.10
2022-11-30T01:28:46.641Z,32.70
2022-11-30T01:31:15.172Z,34.30
2022-11-30T01:33:43.328Z,33.47
2022-11-30T01:36:21.305Z,32.47
2022-11-30T01:38:54.006Z,34.20
2022-11-30T01:41:33.764Z,33.70
2022-11-30T01:44:07.189Z,34.13
2022-11-30T01:46:43.102Z,34.70
2022-11-30T01:49:10.440Z,35.33
2022-11-30T01:51:55.877Z,36.00
2022-11-30T01:54:36.424Z,36.87
2022-11-30T01:57:16.764Z,37.50
2022-11-30T01:59:44.515Z,38.03
2022-11-30T02:02:12.087Z,38.00
2022-11-30T02:04:39.757Z,37.03
2022-11-30T02:07:09.239Z,36.50
2022-11-30T02:09:44.405Z,37.90
2022-11-30T02:12:31.450Z,37.87
2022-11-30T02:15:06.865Z,36.97
2022-11-30T02:18:06.075Z,33.30
2022-11-30T02:21:10.057Z,34.93
2022-11-30T02:24:10.819Z,33.17
2022-11-30T02:27:10.546Z,32.17
2022-11-30T02:29:56.817Z,31.10
2022-11-30T02:32:32.611Z,32.67
2022-11-30T02:35:02.304Z,31.43
2022-11-30T02:37:32.021Z,33.03
2022-11-30T02:39:59.441Z,33.60
2022-11-30T02:42:26.899Z,33.73
2022-11-30T02:44:55.053Z,31.80
2022-11-30T02:48:10.573Z,33.57
2022-11-30T02:50:54.902Z,31.77
2022-11-30T02:53:22.789Z,31.57
2022-11-30T02:55:50.176Z,33.70
2022-11-30T02:58:18.208Z,33.67
2022-11-30T03:00:45.941Z,32.33
2022-11-30T03:03:13.406Z,33.17
2022-11-30T03:05:40.967Z,34.03
2022-11-30T03:08:08.471Z,33.03
2022-11-30T03:10:35.833Z,33.63
2022-11-30T03:13:03.283Z,31.83
2022-11-30T03:15:30.743Z,33.97
2022-11-30T03:18:02.909Z,32.77
2022-11-30T03:20:30.445Z,33.30
2022-11-30T03:23:02.330Z,32.67
2022-11-30T03:25:29.985Z,31.90
2022-11-30T03:27:57.400Z,31.33
2022-11-30T03:30:24.835Z,33.03
2022-11-30T03:32:52.938Z,33.13
2022-11-30T03:35:20.626Z,32.93
2022-11-30T03:37:48.559Z,30.60
2022-11-30T03:40:16.242Z,30.50
2022-11-30T03:42:43.672Z,31.97
2022-11-30T03:45:11.502Z,35.33
2022-11-30T03:47:38.941Z,34.93
2022-11-30T03:50:07.519Z,32.77
2022-11-30T03:52:35.000Z,31.90
2022-11-30T03:55:02.454Z,31.77
2022-11-30T03:57:29.860Z,31.53
2022-11-30T03:59:57.311Z,30.83
2022-11-30T04:02:24.798Z,30.37
2022-11-30T04:04:52.796Z,29.77
2022-11-30T04:07:20.251Z,29.60
2022-11-30T04:09:47.660Z,28.80
2022-11-30T04:12:15.095Z,29.70
2022-11-30T04:14:42.559Z,30.20
2022-11-30T04:17:10.004Z,30.50
2022-11-30T04:19:37.396Z,30.37
2022-11-30T04:22:04.877Z,30.00
2022-11-30T04:24:32.294Z,29.67
2022-11-30T04:26:59.736Z,28.53
2022-11-30T04:29:27.207Z,27.83
2022-11-30T04:31:54.644Z,27.43
2022-11-30T04:34:22.103Z,27.33
2022-11-30T04:36:49.515Z,26.33
2022-11-30T04:39:16.951Z,26.80
2022-11-30T04:41:44.420Z,28.07
2022-11-30T04:44:11.872Z,26.60
2022-11-30T04:46:39.390Z,26.73
2022-11-30T04:49:06.898Z,26.70
2022-11-30T04:51:34.264Z,25.97
2022-11-30T04:54:01.726Z,27.00
2022-11-30T04:56:29.166Z,28.93
2022-11-30T04:58:56.684Z,26.83
2022-11-30T05:01:24.089Z,29.10
2022-11-30T05:03:51.537Z,28.10
2022-11-30T05:06:18.930Z,27.57
2022-11-30T05:08:46.614Z,28.43
2022-11-30T05:11:14.039Z,28.40
2022-11-30T05:13:41.465Z,29.17
2022-11-30T05:16:10.853Z,27.67
2022-11-30T05:18:38.322Z,28.70
2022-11-30T05:21:05.928Z,35.17
2022-11-30T05:23:33.381Z,35.13
2022-11-30T05:26:03.694Z,30.47
2022-11-30T05:28:31.114Z,30.20
2022-11-30T05:31:04.838Z,28.03
2022-11-30T05:33:33.749Z,26.87
2022-11-30T05:36:04.580Z,31.37
2022-11-30T05:38:34.693Z,28.40
2022-11-30T05:41:03.493Z,29.83
2022-11-30T05:43:31.040Z,37.80
2022-11-30T05:46:06.965Z,32.27
2022-11-30T05:48:34.509Z,27.30
2022-11-30T05:51:11.291Z,26.93
2022-11-30T05:53:39.232Z,26.63
2022-11-30T05:56:11.214Z,28.63
2022-11-30T05:58:39.830Z,27.73
2022-11-30T06:01:07.963Z,25.77
2022-11-30T06:03:36.288Z,26.37
2022-11-30T06:06:03.785Z,26.23
2022-11-30T06:08:31.418Z,25.93
2022-11-30T06:11:01.933Z,27.43
2022-11-30T06:13:29.754Z,27.53
2022-11-30T06:16:03.880Z,24.97
2022-11-30T06:18:32.406Z,26.80
2022-11-30T06:21:11.463Z,25.70
2022-11-30T06:23:38.982Z,26.27
2022-11-30T06:26:10.335Z,26.63
2022-11-30T06:28:40.041Z,27.43
2022-11-30T06:31:09.877Z,26.97
2022-11-30T06:33:37.515Z,29.80
2022-11-30T06:36:05.722Z,27.03
2022-11-30T06:38:33.257Z,27.10
2022-11-30T06:41:09.464Z,27.00
2022-11-30T06:43:39.128Z,25.83
2022-11-30T06:46:08.127Z,27.40
2022-11-30T06:48:36.426Z,27.80
2022-11-30T06:51:09.197Z,26.47
2022-11-30T06:53:37.464Z,31.90
2022-11-30T06:56:10.622Z,31.50
2022-11-30T06:58:40.011Z,28.27
2022-11-30T07:01:13.663Z,32.40
2022-11-30T07:03:42.378Z,27.83
2022-11-30T07:06:13.290Z,25.63
2022-11-30T07:08:41.901Z,24.97
2022-11-30T07:11:13.770Z,26.13
2022-11-30T07:13:42.016Z,26.87
2022-11-30T07:16:12.205Z,26.30
2022-11-30T07:18:40.020Z,26.80
2022-11-30T07:21:08.125Z,25.60
2022-11-30T07:23:56.696Z,26.73
2022-11-30T07:26:25.996Z,25.93
2022-11-30T07:28:55.561Z,25.00
2022-11-30T07:31:28.260Z,24.70
2022-11-30T07:33:57.947Z,27.70
2022-11-30T07:36:27.742Z,27.07
2022-11-30T07:38:55.248Z,26.27
2022-11-30T07:41:22.742Z,26.47
2022-11-30T07:43:50.741Z,25.97
2022-11-30T07:46:18.851Z,26.97
2022-11-30T07:48:47.543Z,25.60
2022-11-30T07:51:19.602Z,26.60
2022-11-30T07:53:47.966Z,26.47
2022-11-30T07:56:18.980Z,27.00
2022-11-30T07:58:47.388Z,25.73
2022-11-30T08:01:19.303Z,25.83
2022-11-30T08:03:47.006Z,29.47
2022-11-30T08:06:20.053Z,30.43
2022-11-30T08:08:50.704Z,32.77
2022-11-30T08:11:24.668Z,34.27
2022-11-30T08:13:52.843Z,27.77
2022-11-30T08:16:27.953Z,29.20
2022-11-30T08:18:59.781Z,31.20
2022-11-30T08:21:27.331Z,30.23
2022-11-30T08:23:57.046Z,29.30
2022-11-30T08:26:30.880Z,28.93
2022-11-30T08:29:00.273Z,26.90
2022-11-30T08:31:31.405Z,26.37
2022-11-30T08:34:11.857Z,28.00
2022-11-30T08:36:40.761Z,26.20
2022-11-30T08:39:11.870Z,27.17
2022-11-30T08:41:39.552Z,27.13
2022-11-30T08:44:07.269Z,27.90
2022-11-30T08:46:50.802Z,28.10
2022-11-30T08:49:23.012Z,26.10
2022-11-30T08:54:47.438Z,23.97
2022-11-30T08:57:21.231Z,26.13
2022-11-30T08:59:49.404Z,24.67
2022-11-30T09:02:19.305Z,24.67
2022-11-30T09:04:49.613Z,22.70
2022-11-30T09:07:18.092Z,23.47
2022-11-30T09:09:45.936Z,23.33
2022-11-30T09:12:13.447Z,34.67
2022-11-30T09:14:40.915Z,29.90
2022-11-30T09:17:08.315Z,23.43
2022-11-30T09:19:36.139Z,26.07
2022-11-30T09:22:03.674Z,26.67
2022-11-30T09:24:31.096Z,25.73
2022-11-30T09:26:58.564Z,23.87
2022-11-30T09:29:26.098Z,26.80
2022-11-30T09:31:53.572Z,29.63
2022-11-30T09:34:21.177Z,30.13
2022-11-30T09:36:48.573Z,27.13
2022-11-30T09:39:16.046Z,25.17
2022-11-30T09:41:54.185Z,26.63
2022-11-30T09:44:36.333Z,28.30
2022-11-30T09:47:27.757Z,29.73
2022-11-30T09:50:15.091Z,29.63
2022-11-30T09:52:51.488Z,32.37
2022-11-30T09:55:28.843Z,27.20
2022-11-30T09:58:06.019Z,31.03
2022-11-30T10:00:35.352Z,27.87
2022-11-30T10:03:06.357Z,26.97
2022-11-30T10:06:10.120Z,24.63
2022-11-30T10:08:50.352Z,28.93
2022-11-30T10:11:52.440Z,28.27
2022-11-30T10:15:01.090Z,28.03
2022-11-30T10:18:06.717Z,23.27
2022-11-30T10:21:17.928Z,27.60
2022-11-30T10:24:34.886Z,21.83
2022-11-30T10:27:36.777Z,23.57
2022-11-30T10:30:13.396Z,29.53
2022-11-30T10:32:45.508Z,24.17
2022-11-30T10:35:35.433Z,23.10
2022-11-30T10:38:16.734Z,21.90
2022-11-30T10:40:55.533Z,21.90
2022-11-30T10:43:45.919Z,22.53
2022-11-30T10:46:26.685Z,22.60
2022-11-30T10:49:14.833Z,24.13
2022-11-30T10:51:46.053Z,24.70
2022-11-30T10:54:21.870Z,24.77
2022-11-30T10:56:50.106Z,30.60
2022-11-30T10:59:26.561Z,22.43
2022-11-30T11:01:54.595Z,25.27
2022-11-30T11:04:25.560Z,27.17
2022-11-30T11:07:10.638Z,22.07
2022-11-30T11:09:42.960Z,23.63
2022-11-30T11:12:25.374Z,24.07
2022-11-30T11:15:20.741Z,23.20
2022-11-30T11:17:49.519Z,24.47
2022-11-30T11:20:43.837Z,23.50
2022-11-30T11:23:34.206Z,22.60
2022-11-30T11:26:02.161Z,22.03
2022-11-30T11:28:30.426Z,22.10
2022-11-30T11:30:58.532Z,24.67
2022-11-30T11:33:29.944Z,27.37
2022-11-30T11:36:25.616Z,28.63
2022-11-30T11:38:53.178Z,24.17
2022-11-30T11:41:36.055Z,27.10
2022-11-30T11:44:12.625Z,25.53
2022-11-30T11:47:02.270Z,23.00
2022-11-30T11:49:35.096Z,22.93
2022-11-30T11:52:11.589Z,24.53
2022-11-30T11:55:00.417Z,23.20
2022-11-30T11:58:01.111Z,23.90
2022-11-30T12:00:28.624Z,25.00
2022-11-30T12:03:18.787Z,25.00
2022-11-30T12:05:57.793Z,22.93
2022-11-30T12:08:46.459Z,21.87
2022-11-30T12:11:41.536Z,20.97
2022-11-30T12:14:15.759Z,22.17
2022-11-30T12:17:21.153Z,21.93
2022-11-30T12:20:19.232Z,22.63
2022-11-30T12:23:10.892Z,23.00
2022-11-30T12:25:52.979Z,22.40
2022-11-30T12:28:37.063Z,22.80
2022-11-30T12:31:18.344Z,24.87
2022-11-30T12:34:04.364Z,21.70
2022-11-30T12:36:40.848Z,22.10
2022-11-30T12:40:02.755Z,22.23
2022-11-30T12:42:49.041Z,22.33
2022-11-30T12:45:31.899Z,22.80
2022-11-30T12:48:02.148Z,23.33
2022-11-30T12:50:53.269Z,23.00
2022-11-30T12:54:09.461Z,24.03
2022-11-30T12:56:54.405Z,23.33
2022-11-30T12:59:41.802Z,23.87
2022-11-30T13:02:30.208Z,24.33
2022-11-30T13:05:12.907Z,23.87
2022-11-30T13:08:26.755Z,25.37
2022-11-30T13:11:00.726Z,29.23
2022-11-30T13:13:34.120Z,26.13
2022-11-30T13:16:06.361Z,26.30
2022-11-30T13:18:35.026Z,25.43
2022-11-30T13:21:13.903Z,24.80
2022-11-30T13:24:20.067Z,25.13
2022-11-30T13:27:18.822Z,24.27
2022-11-30T13:30:17.735Z,23.83
2022-11-30T13:33:00.556Z,24.43
2022-11-30T13:35:30.836Z,24.97
2022-11-30T13:41:06.703Z,26.47
2022-11-30T13:43:45.625Z,28.80
2022-11-30T13:46:19.480Z,24.87
2022-11-30T13:48:47.784Z,26.33
2022-11-30T13:51:37.262Z,28.57
2022-11-30T13:54:46.791Z,32.17
2022-11-30T13:57:29.865Z,29.30
2022-11-30T14:00:03.397Z,30.97
2022-11-30T14:02:42.230Z,30.70
2022-11-30T14:05:18.991Z,26.13
2022-11-30T14:08:10.362Z,28.23
2022-11-30T14:10:46.904Z,28.47
2022-11-30T14:13:34.455Z,26.17
2022-11-30T14:16:03.382Z,26.70
2022-11-30T14:18:38.798Z,28.27
2022-11-30T14:21:33.584Z,28.80
2022-11-30T14:24:23.670Z,29.73
2022-11-30T14:26:52.887Z,30.47
2022-11-30T14:29:28.933Z,41.27
2022-11-30T14:32:07.791Z,55.07
2022-11-30T14:34:47.581Z,32.97
2022-11-30T14:37:29.571Z,28.77
2022-11-30T14:40:02.088Z,28.57
2022-11-30T14:42:32.193Z,28.47
2022-11-30T14:45:00.247Z,31.87
2022-11-30T14:47:31.274Z,59.67
2022-11-30T14:50:02.980Z,38.80
2022-11-30T14:52:52.593Z,31.70
2022-11-30T14:55:44.522Z,27.17
2022-11-30T14:58:44.140Z,27.23
2022-11-30T15:01:20.770Z,26.57
2022-11-30T15:03:50.571Z,25.33
2022-11-30T15:06:31.384Z,25.60
2022-11-30T15:09:00.937Z,29.60
2022-11-30T15:11:28.975Z,35.10
2022-11-30T15:14:08.232Z,29.03
2022-11-30T15:16:36.272Z,28.00
2022-11-30T15:19:18.688Z,26.97
2022-11-30T15:21:47.907Z,30.20
2022-11-30T15:24:15.453Z,27.57
2022-11-30T15:26:59.312Z,27.60
2022-11-30T15:29:31.974Z,24.60
2022-11-30T15:32:04.147Z,25.50
2022-11-30T15:34:39.928Z,39.23
2022-11-30T15:37:07.866Z,43.87
2022-11-30T15:39:35.448Z,30.50
2022-11-30T15:42:05.180Z,26.97
2022-11-30T15:44:50.850Z,27.43
2022-11-30T15:47:32.735Z,28.73
2022-11-30T15:50:00.289Z,33.70
2022-11-30T15:52:31.077Z,30.17
2022-11-30T15:55:03.576Z,44.40
2022-11-30T15:57:58.480Z,40.13
2022-11-30T16:00:26.487Z,38.03
2022-11-30T16:03:11.951Z,41.40
2022-11-30T16:05:57.377Z,32.80
2022-11-30T16:08:25.127Z,32.90
2022-11-30T16:10:53.169Z,34.80
2022-11-30T16:13:23.435Z,34.97
2022-11-30T16:15:52.707Z,36.90
2022-11-30T16:18:26.824Z,38.37
2022-11-30T16:21:01.638Z,32.77
2022-11-30T16:23:29.598Z,34.93
2022-11-30T16:25:57.031Z,45.27
2022-11-30T16:28:24.533Z,34.50
2022-11-30T16:30:54.399Z,34.30
2022-11-30T16:33:28.343Z,32.57
2022-11-30T16:36:04.772Z,30.53
2022-11-30T16:38:33.060Z,30.27
2022-11-30T16:41:16.155Z,31.57
2022-11-30T16:43:45.425Z,36.77
2022-11-30T16:46:22.927Z,33.47
2022-11-30T16:48:50.901Z,33.60
2022-11-30T16:51:25.413Z,31.83
2022-11-30T16:53:53.265Z,33.67
2022-11-30T16:56:21.371Z,33.03
2022-11-30T16:58:49.387Z,28.37
2022-11-30T17:01:35.920Z,33.67
2022-11-30T17:04:24.107Z,34.07
2022-11-30T17:06:57.181Z,30.17
2022-11-30T17:09:30.068Z,29.90
2022-11-30T17:11:57.553Z,29.90
2022-11-30T17:14:25.058Z,29.67
2022-11-30T17:16:52.517Z,28.57
2022-11-30T17:19:19.983Z,29.13
2022-11-30T17:21:48.523Z,30.60
2022-11-30T17:24:16.468Z,26.07
2022-11-30T17:26:43.994Z,32.03
2022-11-30T17:29:11.457Z,32.47
2022-11-30T17:31:38.853Z,35.17
2022-11-30T17:34:08.582Z,30.30
2022-11-30T17:36:36.056Z,28.83
2022-11-30T17:39:08.376Z,34.50
2022-11-30T17:41:35.974Z,34.57
2022-11-30T17:44:03.573Z,33.70
2022-11-30T17:46:31.096Z,35.73
2022-11-30T17:48:58.811Z,35.13
2022-11-30T17:51:26.305Z,31.97
2022-11-30T17:53:53.760Z,32.53
2022-11-30T17:56:21.306Z,33.00
2022-11-30T17:58:49.500Z,34.23
2022-11-30T18:01:27.783Z,33.03
2022-11-30T18:03:56.668Z,38.97
2022-11-30T18:06:24.636Z,31.80
2022-11-30T18:08:52.729Z,30.80
2022-11-30T18:11:23.550Z,32.20
2022-11-30T18:13:54.708Z,32.93
2022-11-30T18:16:36.631Z,30.10
2022-11-30T18:19:12.522Z,36.23
2022-11-30T18:21:42.491Z,31.43
2022-11-30T18:24:11.799Z,33.17
2022-11-30T18:26:40.267Z,34.17
2022-11-30T18:29:08.333Z,33.80
2022-11-30T18:31:36.504Z,31.93
2022-11-30T18:34:08.042Z,30.93
2022-11-30T18:36:35.520Z,29.60
2022-11-30T18:39:03.170Z,31.97
2022-11-30T18:41:30.688Z,32.70
2022-11-30T18:43:58.655Z,28.93
2022-11-30T18:46:26.657Z,30.33
2022-11-30T18:48:54.799Z,31.80
2022-11-30T18:51:30.987Z,27.63
2022-11-30T18:54:04.266Z,30.20
2022-11-30T18:56:36.635Z,28.30
2022-11-30T18:59:12.650Z,51.07
2022-11-30T19:01:41.617Z,37.63
2022-11-30T19:04:11.918Z,27.27
2022-11-30T19:06:42.295Z,27.10
2022-11-30T19:09:14.932Z,28.17
2022-11-30T19:11:44.189Z,30.27
2022-11-30T19:14:17.381Z,30.13
2022-11-30T19:16:47.191Z,29.93
2022-11-30T19:19:16.282Z,36.80
2022-11-30T19:21:48.238Z,35.23
2022-11-30T19:24:17.896Z,37.10
2022-11-30T19:26:46.312Z,35.27
2022-11-30T19:29:14.585Z,31.47
2022-11-30T19:31:43.065Z,29.93
2022-11-30T19:34:13.186Z,26.23
2022-11-30T19:36:42.274Z,23.47
2022-11-30T19:39:11.601Z,26.03
2022-11-30T19:41:40.033Z,25.40
2022-11-30T19:44:13.701Z,26.90
2022-11-30T19:46:43.275Z,32.30
2022-11-30T19:49:11.970Z,31.93
2022-11-30T19:51:42.673Z,31.47
2022-11-30T19:54:10.961Z,28.57
2022-11-30T19:56:43.209Z,26.70
2022-11-30T19:59:11.599Z,27.63
2022-11-30T20:01:40.022Z,28.63
2022-11-30T20:04:08.657Z,31.77
2022-11-30T20:06:38.910Z,33.80
2022-11-30T20:09:09.129Z,32.87
2022-11-30T20:11:37.341Z,31.43
2022-11-30T20:14:05.251Z,32.50
2022-11-30T20:16:33.168Z,32.53
2022-11-30T20:19:02.872Z,31.80
2022-11-30T20:21:33.684Z,31.57
2022-11-30T20:24:06.310Z,34.63
2022-11-30T20:26:40.762Z,32.43
2022-11-30T20:29:16.447Z,32.37
2022-11-30T20:31:48.797Z,28.43
2022-11-30T20:34:17.321Z,32.60
2022-11-30T20:36:45.565Z,34.70
2022-11-30T20:39:13.365Z,33.30
2022-11-30T20:41:40.977Z,34.73
2022-11-30T20:44:13.973Z,31.43
2022-11-30T20:46:41.835Z,32.23
2022-11-30T20:49:21.848Z,34.37
2022-11-30T20:51:49.441Z,31.47
2022-11-30T20:54:17.865Z,29.03
2022-11-30T20:56:50.082Z,32.37
2022-11-30T20:59:26.520Z,36.57
2022-11-30T21:01:57.721Z,31.40
2022-11-30T21:04:26.214Z,33.10
2022-11-30T21:06:54.641Z,32.60
2022-11-30T21:09:22.443Z,30.33
2022-11-30T21:11:50.037Z,30.60
2022-11-30T21:14:20.612Z,29.70
2022-11-30T21:16:48.231Z,31.23
2022-11-30T21:19:16.149Z,32.47
2022-11-30T21:21:44.354Z,37.97
2022-11-30T21:24:12.325Z,38.60
2022-11-30T21:26:42.496Z,38.27
2022-11-30T21:29:17.884Z,33.73
2022-11-30T21:31:45.635Z,34.03
2022-11-30T21:34:13.562Z,29.90
2022-11-30T21:36:41.681Z,35.27
2022-11-30T21:39:15.933Z,31.53
2022-11-30T21:41:43.589Z,31.67
2022-11-30T21:44:14.212Z,28.80
2022-11-30T21:46:42.845Z,26.03
2022-11-30T21:49:10.336Z,24.63
2022-11-30T21:51:38.111Z,24.87
2022-11-30T21:54:08.579Z,27.63
2022-11-30T21:56:39.096Z,26.03
2022-11-30T21:59:09.185Z,25.53
2022-11-30T22:01:40.296Z,27.20
2022-11-30T22:04:10.299Z,25.90
2022-11-30T22:06:39.976Z,25.13
2022-11-30T22:09:17.767Z,25.23
2022-11-30T22:11:46.367Z,26.33
2022-11-30T22:14:16.565Z,26.10
2022-11-30T22:16:44.563Z,26.67
2022-11-30T22:19:12.124Z,26.90
2022-11-30T22:21:39.846Z,25.20
2022-11-30T22:24:13.001Z,25.83
2022-11-30T22:26:43.694Z,26.30
2022-11-30T22:29:21.296Z,29.67
2022-11-30T22:31:51.844Z,25.93
2022-11-30T22:34:20.672Z,26.73
2022-11-30T22:36:48.892Z,25.53
2022-11-30T22:39:21.909Z,29.13
2022-11-30T22:41:55.297Z,26.50
2022-11-30T22:44:24.824Z,26.40
2022-11-30T22:46:52.409Z,26.03
2022-11-30T22:49:22.923Z,27.93
2022-11-30T22:51:51.241Z,26.53
2022-11-30T22:54:19.073Z,26.90
2022-11-30T22:56:46.904Z,28.30
2022-11-30T22:59:15.961Z,26.23
2022-11-30T23:01:47.289Z,29.00
2022-11-30T23:04:18.652Z,36.80
2022-11-30T23:06:48.553Z,27.13
2022-11-30T23:09:20.032Z,26.60
2022-11-30T23:11:48.402Z,28.13
2022-11-30T23:14:16.628Z,28.30
2022-11-30T23:16:45.252Z,27.77
2022-11-30T23:19:14.039Z,23.93
2022-11-30T23:21:45.074Z,25.03
2022-11-30T23:24:20.958Z,24.07
2022-11-30T23:26:48.608Z,25.00
2022-11-30T23:29:17.645Z,31.73
2022-11-30T23:31:46.864Z,26.83
2022-11-30T23:34:21.632Z,27.10
2022-11-30T23:36:50.183Z,26.20
2022-11-30T23:39:19.363Z,25.63
2022-11-30T23:41:47.758Z,25.37
2022-11-30T23:44:15.609Z,25.37
2022-11-30T23:46:43.283Z,24.20
2022-11-30T23:49:14.141Z,23.73
2022-11-30T23:51:42.598Z,24.40
2022-11-30T23:54:10.074Z,23.97
2022-11-30T23:56:37.656Z,22.93
2022-11-30T23:59:06.081Z,23.70
